Time;durP1;ratioP1;P1;durP2;ratioP2;P2;SDS_P1;SDS_P2;PMS_P1;PMS_P2;Temp;Humidity;BMP_temperature;BMP_pressure;BME280_temperature;BME280_humidity;BME280_pressure;Samples;Min_cycle;Max_cycle;Signal;HPM_P1;HPM_P2
2023/03/17 00:01:52;;;;;;;7.60;2.78;;;10.70;99.90;;;;;;5050427;28;20025;-50
2023/03/17 00:04:18;;;;;;;8.65;2.35;;;10.70;99.90;;;;;;5050179;28;20017;-44
2023/03/17 00:06:45;;;;;;;11.13;2.78;;;10.60;99.90;;;;;;5050147;28;20025;-44
2023/03/17 00:09:16;;;;;;;11.57;2.85;;;10.60;99.90;;;;;;5050069;28;20496;-47
2023/03/17 00:11:43;;;;;;;9.60;3.20;;;10.60;99.90;;;;;;5045250;28;20033;-43
2023/03/17 00:14:09;;;;;;;9.43;2.53;;;10.60;99.90;;;;;;5044916;28;20028;-43
2023/03/17 00:16:41;;;;;;;10.63;2.83;;;10.60;99.90;;;;;;5050070;28;20049;-43
2023/03/17 00:19:09;;;;;;;8.65;2.60;;;10.60;99.90;;;;;;5050167;28;20052;-43
2023/03/17 00:21:36;;;;;;;8.23;2.70;;;10.60;99.90;;;;;;5051828;28;20021;-48
2023/03/17 00:24:01;;;;;;;10.23;2.83;;;10.60;99.90;;;;;;5054220;28;20076;-44
2023/03/17 00:26:27;;;;;;;10.52;2.95;;;10.50;99.90;;;;;;5054174;28;20457;-44
2023/03/17 00:28:54;;;;;;;12.70;3.00;;;10.50;99.90;;;;;;5054003;28;20033;-47
2023/03/17 00:31:31;;;;;;;10.88;2.88;;;10.50;99.90;;;;;;5053630;28;20025;-46
2023/03/17 00:33:57;;;;;;;8.93;3.05;;;10.50;99.90;;;;;;5035887;28;20033;-46
2023/03/17 00:36:27;;;;;;;11.77;3.53;;;10.60;99.90;;;;;;5053598;28;20040;-48
2023/03/17 00:38:53;;;;;;;12.75;3.15;;;10.60;99.90;;;;;;5053864;28;20093;-44
2023/03/17 00:41:19;;;;;;;8.80;3.08;;;10.70;99.90;;;;;;5049471;28;20405;-45
2023/03/17 00:43:45;;;;;;;12.30;3.10;;;10.70;99.90;;;;;;5053118;28;20104;-49
2023/03/17 00:46:34;;;;;;;13.40;2.92;;;10.80;99.90;;;;;;5042291;28;20124;-44
2023/03/17 00:49:01;;;;;;;9.95;2.83;;;10.80;99.90;;;;;;5053504;28;20051;-46
2023/03/17 00:51:28;;;;;;;10.75;3.10;;;10.80;99.90;;;;;;5053589;28;20117;-49
2023/03/17 00:53:55;;;;;;;15.07;3.10;;;10.80;99.90;;;;;;5053461;28;20025;-52
2023/03/17 00:56:22;;;;;;;9.00;3.05;;;10.80;99.90;;;;;;5053206;28;20405;-46
2023/03/17 00:58:47;;;;;;;9.98;3.45;;;10.90;99.90;;;;;;5053276;28;20086;-48
2023/03/17 01:01:13;;;;;;;8.95;3.85;;;10.90;99.90;;;;;;5035419;28;20104;-48
2023/03/17 01:03:40;;;;;;;13.05;3.70;;;10.90;99.90;;;;;;5053418;28;20410;-47
2023/03/17 01:06:09;;;;;;;13.48;3.53;;;10.90;99.90;;;;;;5053236;28;20025;-45
2023/03/17 01:08:35;;;;;;;9.43;3.15;;;11.00;99.90;;;;;;5035602;28;20027;-48
2023/03/17 01:11:01;;;;;;;17.42;3.80;;;11.00;99.90;;;;;;5052251;28;20029;-45
2023/03/17 01:13:28;;;;;;;13.00;3.60;;;11.00;99.90;;;;;;5053169;28;20040;-56
2023/03/17 01:15:55;;;;;;;10.07;3.47;;;11.00;99.90;;;;;;5052550;28;20052;-52
2023/03/17 01:18:21;;;;;;;10.40;3.50;;;11.10;99.90;;;;;;5044507;28;20024;-45
2023/03/17 01:20:48;;;;;;;13.45;3.63;;;11.00;99.90;;;;;;5052805;28;20025;-45
2023/03/17 01:23:17;;;;;;;15.68;4.32;;;11.00;99.90;;;;;;5051247;28;20017;-47
2023/03/17 01:25:44;;;;;;;16.35;4.60;;;11.00;99.90;;;;;;5035743;28;20054;-49
2023/03/17 01:28:18;;;;;;;19.45;5.18;;;11.10;99.90;;;;;;5052688;28;20064;-45
2023/03/17 01:30:44;;;;;;;15.20;4.35;;;11.00;99.90;;;;;;5053082;28;20028;-46
2023/03/17 01:33:11;;;;;;;19.42;4.90;;;11.00;99.90;;;;;;5051883;28;20025;-46
2023/03/17 01:35:38;;;;;;;14.90;4.47;;;11.00;99.90;;;;;;5052604;28;20441;-48
2023/03/17 01:38:04;;;;;;;18.65;5.43;;;10.90;99.90;;;;;;5052576;28;20025;-51
2023/03/17 01:40:33;;;;;;;12.57;4.80;;;10.90;99.90;;;;;;5052587;28;20036;-52
2023/03/17 01:43:05;;;;;;;14.13;5.18;;;10.90;99.90;;;;;;5052477;28;20024;-43
2023/03/17 01:46:08;;;;;;;14.95;4.70;;;10.90;99.90;;;;;;5052473;28;20089;-46
2023/03/17 01:48:39;;;;;;;15.02;5.50;;;10.80;99.90;;;;;;5052281;28;20103;-46
2023/03/17 01:51:08;;;;;;;19.88;6.32;;;10.70;99.90;;;;;;5052378;28;20027;-50
2023/03/17 01:53:34;;;;;;;18.70;5.43;;;10.70;99.90;;;;;;5048094;28;20067;-50
2023/03/17 01:56:02;;;;;;;11.98;5.07;;;10.70;99.90;;;;;;5052289;28;20045;-51
2023/03/17 01:58:28;;;;;;;16.52;6.18;;;10.70;99.90;;;;;;5052212;28;20031;-55
2023/03/17 02:00:54;;;;;;;14.15;5.80;;;10.60;99.90;;;;;;5052027;28;20120;-46
2023/03/17 02:03:21;;;;;;;17.95;6.60;;;10.60;99.90;;;;;;5052097;28;20136;-50
2023/03/17 02:05:50;;;;;;;20.45;6.90;;;10.50;99.90;;;;;;5051732;28;20044;-46
2023/03/17 02:08:16;;;;;;;15.33;7.43;;;10.50;99.90;;;;;;5052118;28;20083;-48
2023/03/17 02:10:44;;;;;;;17.30;7.45;;;10.50;99.90;;;;;;5051043;28;20029;-45
2023/03/17 02:13:12;;;;;;;16.50;7.32;;;10.50;99.90;;;;;;5052068;28;20025;-46
2023/03/17 02:15:47;;;;;;;20.98;7.78;;;10.60;99.90;;;;;;5051807;28;20052;-49
2023/03/17 02:18:14;;;;;;;16.83;8.27;;;10.50;99.90;;;;;;5051856;28;20100;-55
2023/03/17 02:20:39;;;;;;;17.38;8.18;;;10.50;99.90;;;;;;5034353;28;20029;-49
2023/03/17 02:23:06;;;;;;;20.65;8.98;;;10.50;99.90;;;;;;5051664;28;20367;-49
2023/03/17 02:25:34;;;;;;;19.77;8.40;;;10.50;99.90;;;;;;5051937;28;20032;-54
2023/03/17 02:28:07;;;;;;;16.83;8.50;;;10.50;99.90;;;;;;5051630;28;21968;-50
2023/03/17 02:30:35;;;;;;;20.30;9.27;;;10.40;99.90;;;;;;5051610;28;20366;-51
2023/03/17 02:33:01;;;;;;;15.20;8.55;;;10.40;99.90;;;;;;5051908;28;20355;-51
2023/03/17 02:35:27;;;;;;;22.75;9.57;;;10.50;99.90;;;;;;5051422;28;20056;-46
2023/03/17 02:37:53;;;;;;;14.82;9.20;;;10.40;99.90;;;;;;5051443;28;20385;-45
2023/03/17 02:40:18;;;;;;;19.20;9.52;;;10.40;99.90;;;;;;5041246;28;20021;-46
2023/03/17 02:42:44;;;;;;;15.13;9.05;;;10.40;99.90;;;;;;5051196;28;20448;-45
2023/03/17 02:45:10;;;;;;;19.77;9.10;;;10.40;99.90;;;;;;5032196;28;20584;-42
2023/03/17 02:47:37;;;;;;;17.83;9.65;;;10.40;99.90;;;;;;5051354;28;20025;-43
2023/03/17 02:50:03;;;;;;;18.42;9.73;;;10.40;99.90;;;;;;5051304;28;20028;-49
2023/03/17 02:52:30;;;;;;;15.02;9.15;;;10.40;99.90;;;;;;5050990;28;20028;-44
2023/03/17 02:54:56;;;;;;;21.30;10.07;;;10.40;99.90;;;;;;5051344;28;20104;-50
2023/03/17 02:57:22;;;;;;;18.58;9.65;;;10.40;99.90;;;;;;5050934;28;20117;-47
2023/03/17 02:59:47;;;;;;;20.40;10.77;;;10.40;99.90;;;;;;5051130;28;20456;-45
2023/03/17 03:02:13;;;;;;;15.38;9.10;;;10.40;99.90;;;;;;5051001;28;20029;-45
2023/03/17 03:04:39;;;;;;;16.35;9.77;;;10.40;99.90;;;;;;5051008;28;20028;-52
2023/03/17 03:07:05;;;;;;;17.45;9.57;;;10.50;99.90;;;;;;5051013;28;20367;-49
2023/03/17 03:09:30;;;;;;;17.10;9.40;;;10.50;99.90;;;;;;5047344;28;20032;-44
2023/03/17 03:11:56;;;;;;;19.33;9.90;;;10.50;99.90;;;;;;5040427;28;20092;-43
2023/03/17 03:14:22;;;;;;;23.00;10.82;;;10.50;99.90;;;;;;5047300;28;20029;-48
2023/03/17 03:16:49;;;;;;;18.98;9.82;;;10.60;99.90;;;;;;5050535;28;20052;-43
2023/03/17 03:19:15;;;;;;;22.38;10.75;;;10.60;99.90;;;;;;5050913;28;20496;-55
2023/03/17 03:21:41;;;;;;;20.50;10.20;;;10.60;99.90;;;;;;5050813;28;20370;-46
2023/03/17 03:24:08;;;;;;;17.83;9.82;;;10.60;99.90;;;;;;5032930;28;20028;-49
2023/03/17 03:26:33;;;;;;;18.10;9.25;;;10.60;99.90;;;;;;5050603;28;20034;-47
2023/03/17 03:28:59;;;;;;;18.73;9.77;;;10.60;99.90;;;;;;5049027;28;20032;-49
2023/03/17 03:31:25;;;;;;;17.02;9.90;;;10.60;99.90;;;;;;5048067;28;20095;-44
2023/03/17 03:33:51;;;;;;;15.23;9.52;;;10.70;99.90;;;;;;5050694;28;20067;-48
2023/03/17 03:36:17;;;;;;;19.40;9.95;;;10.70;99.90;;;;;;5032503;28;20029;-42
2023/03/17 03:38:44;;;;;;;16.73;9.63;;;10.70;99.90;;;;;;5032712;28;20060;-43
2023/03/17 03:41:10;;;;;;;18.98;9.93;;;10.70;99.90;;;;;;5050464;28;20037;-43
2023/03/17 03:43:35;;;;;;;18.33;9.88;;;10.70;99.90;;;;;;5050157;28;20017;-45
2023/03/17 03:46:02;;;;;;;21.77;10.30;;;10.60;99.90;;;;;;5050595;28;20105;-47
2023/03/17 03:48:27;;;;;;;20.38;9.70;;;10.60;99.90;;;;;;5050372;28;20078;-45
2023/03/17 03:50:58;;;;;;;18.95;10.85;;;10.60;99.90;;;;;;5050638;28;20104;-46
2023/03/17 03:53:24;;;;;;;19.88;10.13;;;10.50;99.90;;;;;;5050418;28;20124;-45
2023/03/17 03:55:50;;;;;;;18.40;10.75;;;10.60;99.90;;;;;;5050907;28;20037;-44
2023/03/17 03:58:16;;;;;;;15.60;10.35;;;10.50;99.90;;;;;;5054434;28;20021;-45
2023/03/17 04:00:42;;;;;;;15.40;10.15;;;10.60;99.90;;;;;;5047109;28;20075;-45
2023/03/17 04:03:07;;;;;;;17.65;10.60;;;10.60;99.90;;;;;;5054062;28;20028;-47
2023/03/17 04:05:33;;;;;;;19.15;10.23;;;10.60;99.90;;;;;;5054393;28;20032;-45
2023/03/17 04:07:59;;;;;;;19.42;11.25;;;10.60;99.90;;;;;;5054207;28;20024;-44
2023/03/17 04:10:25;;;;;;;18.25;10.77;;;10.70;99.90;;;;;;5054303;28;20029;-47
2023/03/17 04:12:50;;;;;;;24.45;11.57;;;10.70;99.90;;;;;;5036221;28;20500;-50
2023/03/17 04:15:18;;;;;;;25.17;11.40;;;10.70;99.90;;;;;;5053983;28;20055;-47
2023/03/17 04:17:44;;;;;;;22.80;10.93;;;10.70;99.90;;;;;;5052329;28;20036;-49
2023/03/17 04:20:11;;;;;;;19.63;10.38;;;10.70;99.90;;;;;;5053981;28;20013;-46
2023/03/17 04:22:36;;;;;;;25.50;11.02;;;10.80;99.90;;;;;;5053950;28;20029;-45
2023/03/17 04:25:02;;;;;;;22.15;11.02;;;10.80;99.90;;;;;;5053836;28;20039;-45
2023/03/17 04:27:28;;;;;;;25.10;11.10;;;10.80;99.90;;;;;;5035963;28;20025;-47
2023/03/17 04:29:53;;;;;;;24.77;10.40;;;10.80;99.90;;;;;;5053817;28;20025;-45
2023/03/17 04:32:19;;;;;;;25.83;10.27;;;10.80;99.90;;;;;;5052037;28;20090;-45
2023/03/17 04:34:45;;;;;;;23.48;11.65;;;10.80;99.90;;;;;;5053769;28;20048;-50
2023/03/17 04:37:11;;;;;;;27.13;11.07;;;10.80;99.90;;;;;;5053576;28;20033;-51
2023/03/17 04:39:37;;;;;;;24.55;10.65;;;10.80;99.90;;;;;;5053709;28;20473;-47
2023/03/17 04:42:04;;;;;;;22.23;10.10;;;10.90;99.90;;;;;;5053610;28;20028;-47
2023/03/17 04:44:29;;;;;;;26.70;12.93;;;10.90;99.90;;;;;;5035623;28;20025;-48
2023/03/17 04:46:55;;;;;;;21.00;10.88;;;10.90;99.90;;;;;;5046357;28;20402;-45
2023/03/17 04:49:21;;;;;;;29.02;11.43;;;10.90;99.90;;;;;;5047338;28;20116;-47
2023/03/17 04:51:46;;;;;;;26.73;12.07;;;10.90;99.90;;;;;;5053598;28;20017;-49
2023/03/17 04:54:12;;;;;;;29.77;13.60;;;10.90;99.90;;;;;;5053710;28;20035;-48
2023/03/17 04:56:38;;;;;;;31.80;13.02;;;10.80;99.90;;;;;;5053138;28;20032;-44
2023/03/17 04:59:03;;;;;;;27.25;13.50;;;10.80;99.90;;;;;;5053617;28;20029;-49
2023/03/17 05:01:29;;;;;;;37.50;14.18;;;10.80;99.90;;;;;;5053398;28;20371;-47
2023/03/17 05:03:55;;;;;;;36.75;14.02;;;10.80;99.90;;;;;;5053277;28;20084;-51
2023/03/17 05:06:21;;;;;;;40.28;14.95;;;10.80;99.90;;;;;;5053196;28;20056;-51
2023/03/17 05:08:47;;;;;;;39.28;14.32;;;10.80;99.90;;;;;;5051815;28;20452;-52
2023/03/17 05:11:13;;;;;;;42.58;14.00;;;10.80;99.90;;;;;;5035447;28;20021;-45
2023/03/17 05:13:39;;;;;;;41.95;14.07;;;10.70;99.90;;;;;;5052957;28;20024;-52
2023/03/17 05:16:06;;;;;;;31.17;13.70;;;10.70;99.90;;;;;;5052674;28;20493;-48
2023/03/17 05:18:32;;;;;;;38.40;15.07;;;10.70;99.90;;;;;;5048813;28;20029;-44
2023/03/17 05:20:58;;;;;;;50.38;15.80;;;10.70;99.90;;;;;;5035117;28;20029;-55
2023/03/17 05:23:24;;;;;;;44.13;15.05;;;10.70;99.90;;;;;;5052981;28;20025;-47
2023/03/17 05:25:51;;;;;;;41.00;15.93;;;10.60;99.90;;;;;;5052925;28;20028;-49
2023/03/17 05:28:18;;;;;;;47.20;16.17;;;10.60;99.90;;;;;;5052822;28;20025;-44
2023/03/17 05:30:44;;;;;;;39.15;15.85;;;10.60;99.90;;;;;;5052836;28;20021;-47
2023/03/17 05:33:10;;;;;;;43.78;15.32;;;10.60;99.90;;;;;;5052684;28;20025;-49
2023/03/17 05:35:36;;;;;;;40.33;16.60;;;10.60;99.90;;;;;;5052479;28;20033;-49
2023/03/17 05:38:02;;;;;;;49.33;18.45;;;10.60;99.90;;;;;;5052741;28;20032;-44
2023/03/17 05:40:28;;;;;;;39.55;16.67;;;10.50;99.90;;;;;;5052460;28;20401;-46
2023/03/17 05:42:53;;;;;;;49.67;17.15;;;10.50;99.90;;;;;;5052702;28;20036;-46
2023/03/17 05:45:19;;;;;;;42.95;17.05;;;10.50;99.90;;;;;;5052587;28;20032;-52
2023/03/17 05:47:44;;;;;;;41.03;17.27;;;10.50;99.90;;;;;;5042031;28;20021;-49
2023/03/17 05:50:11;;;;;;;39.25;15.63;;;10.50;99.90;;;;;;5052480;28;20386;-46
2023/03/17 05:52:37;;;;;;;46.20;17.05;;;10.50;99.90;;;;;;5052098;28;20032;-45
2023/03/17 05:55:04;;;;;;;41.28;15.45;;;10.50;99.90;;;;;;5052370;28;20805;-49
2023/03/17 05:57:30;;;;;;;34.55;14.45;;;10.50;99.90;;;;;;5052208;28;20037;-50
2023/03/17 05:59:56;;;;;;;42.15;15.48;;;10.50;99.90;;;;;;5052353;28;20017;-46
2023/03/17 06:02:22;;;;;;;44.47;15.52;;;10.50;99.90;;;;;;5052203;28;20492;-49
2023/03/17 06:04:47;;;;;;;56.35;17.75;;;10.50;99.90;;;;;;5052031;28;20406;-52
2023/03/17 06:07:13;;;;;;;41.80;16.20;;;10.50;99.90;;;;;;5052264;28;20032;-48
2023/03/17 06:09:39;;;;;;;37.65;14.48;;;10.50;99.90;;;;;;5051854;28;20060;-56
2023/03/17 06:12:05;;;;;;;38.08;14.50;;;10.50;99.90;;;;;;5051991;28;20374;-48
2023/03/17 06:14:31;;;;;;;35.30;14.40;;;10.50;99.90;;;;;;5052015;28;20056;-51
2023/03/17 06:16:57;;;;;;;34.88;12.85;;;10.40;99.90;;;;;;5030056;28;20064;-55
2023/03/17 06:19:23;;;;;;;35.45;13.98;;;10.40;99.90;;;;;;5051295;28;20036;-46
2023/03/17 06:21:49;;;;;;;44.13;14.60;;;10.40;99.90;;;;;;5051683;28;20025;-48
2023/03/17 06:24:15;;;;;;;29.83;12.30;;;10.40;99.90;;;;;;5033911;28;20087;-47
2023/03/17 06:26:42;;;;;;;38.35;13.68;;;10.40;99.90;;;;;;5033874;28;20446;-49
2023/03/17 06:29:09;;;;;;;33.45;14.20;;;10.40;99.90;;;;;;5051865;28;20028;-50
2023/03/17 06:31:35;;;;;;;38.50;15.02;;;10.30;99.90;;;;;;5017264;28;20028;-44
2023/03/17 06:34:02;;;;;;;48.08;16.23;;;10.30;99.90;;;;;;5051557;28;20017;-48
2023/03/17 06:36:28;;;;;;;53.05;16.45;;;10.30;99.90;;;;;;5051343;28;20041;-51
2023/03/17 06:38:54;;;;;;;50.22;17.88;;;10.30;99.90;;;;;;5051146;28;20097;-47
2023/03/17 06:41:19;;;;;;;46.63;16.70;;;10.30;99.90;;;;;;5051287;28;20112;-50
2023/03/17 06:43:45;;;;;;;45.97;16.83;;;10.30;99.90;;;;;;5051448;28;20060;-47
2023/03/17 06:46:11;;;;;;;37.58;13.52;;;10.30;99.90;;;;;;5048374;28;20025;-43
2023/03/17 06:48:37;;;;;;;37.08;14.27;;;10.30;99.90;;;;;;5024043;28;20028;-44
2023/03/17 06:51:04;;;;;;;54.83;14.10;;;10.30;99.90;;;;;;5051131;28;20053;-47
2023/03/17 06:53:30;;;;;;;44.95;15.65;;;10.30;99.90;;;;;;5051099;28;20075;-52
2023/03/17 06:55:55;;;;;;;40.40;14.60;;;10.30;99.90;;;;;;5050549;28;20037;-44
2023/03/17 06:58:21;;;;;;;61.35;14.82;;;10.30;99.90;;;;;;5051112;28;20021;-47
2023/03/17 07:00:47;;;;;;;51.33;14.50;;;10.30;99.90;;;;;;5051279;28;20025;-49
2023/03/17 07:03:14;;;;;;;82.25;14.13;;;10.30;99.90;;;;;;5051028;28;20020;-43
2023/03/17 07:05:40;;;;;;;56.63;12.50;;;10.30;99.90;;;;;;5051023;28;20140;-44
2023/03/17 07:08:06;;;;;;;56.95;12.05;;;10.30;99.90;;;;;;5050891;28;20036;-44
2023/03/17 07:10:33;;;;;;;60.70;12.02;;;10.30;99.90;;;;;;5050650;28;20465;-48
2023/03/17 07:12:59;;;;;;;76.57;12.60;;;10.30;99.90;;;;;;5050747;28;20119;-47
2023/03/17 07:15:24;;;;;;;45.05;10.88;;;10.30;99.90;;;;;;5050543;28;20132;-46
2023/03/17 07:17:50;;;;;;;40.20;11.52;;;10.30;99.90;;;;;;5047644;28;20066;-46
2023/03/17 07:20:16;;;;;;;36.95;11.82;;;10.40;99.90;;;;;;5050497;28;20021;-45
2023/03/17 07:22:42;;;;;;;41.25;12.10;;;10.40;99.90;;;;;;5050863;28;20481;-44
2023/03/17 07:25:08;;;;;;;29.92;11.10;;;10.40;99.90;;;;;;5050616;28;20032;-47
2023/03/17 07:27:34;;;;;;;37.08;11.52;;;10.40;99.90;;;;;;5050707;28;20435;-50
2023/03/17 07:30:03;;;;;;;35.50;11.75;;;10.40;99.90;;;;;;5050528;28;20025;-50
2023/03/17 07:32:29;;;;;;;31.98;12.57;;;10.40;99.90;;;;;;5050069;28;20025;-48
2023/03/17 07:34:55;;;;;;;36.35;12.50;;;10.50;99.90;;;;;;5050588;28;20054;-47
2023/03/17 07:37:20;;;;;;;29.85;11.20;;;10.50;99.90;;;;;;5050323;28;20100;-44
2023/03/17 07:39:47;;;;;;;27.25;11.38;;;10.50;99.90;;;;;;5050437;28;20390;-48
2023/03/17 07:42:14;;;;;;;30.98;10.85;;;10.50;99.90;;;;;;5050312;28;20033;-44
2023/03/17 07:44:40;;;;;;;23.17;9.30;;;10.50;99.90;;;;;;5036593;28;20041;-47
2023/03/17 07:47:07;;;;;;;23.02;10.60;;;10.50;99.90;;;;;;5049829;28;20058;-50
2023/03/17 07:49:33;;;;;;;25.70;10.48;;;10.60;99.90;;;;;;5050155;28;20025;-46
2023/03/17 07:51:58;;;;;;;24.27;10.82;;;10.60;99.90;;;;;;5050405;28;20029;-47
2023/03/17 07:54:27;;;;;;;26.77;10.30;;;10.60;99.90;;;;;;5050232;28;20107;-44
2023/03/17 07:56:54;;;;;;;22.42;9.70;;;10.60;99.90;;;;;;5050408;28;20032;-50
2023/03/17 07:59:20;;;;;;;23.05;9.23;;;10.60;99.90;;;;;;5050328;28;20116;-49
2023/03/17 08:01:45;;;;;;;23.67;9.35;;;10.70;99.90;;;;;;5050226;28;20056;-52
2023/03/17 08:04:12;;;;;;;21.92;8.93;;;10.70;99.90;;;;;;5050193;28;20401;-49
2023/03/17 08:06:40;;;;;;;18.85;8.18;;;10.70;99.90;;;;;;5050073;28;20017;-52
2023/03/17 08:09:07;;;;;;;19.30;8.00;;;10.70;99.90;;;;;;5050395;28;20511;-44
2023/03/17 08:11:33;;;;;;;24.15;9.40;;;10.70;99.90;;;;;;5050037;28;20025;-47
2023/03/17 08:14:01;;;;;;;21.50;7.65;;;10.80;99.90;;;;;;5050190;28;20066;-46
2023/03/17 08:16:27;;;;;;;21.45;8.80;;;10.80;99.90;;;;;;5044590;28;20102;-53
2023/03/17 08:18:54;;;;;;;19.17;7.88;;;10.90;99.90;;;;;;5050229;28;20028;-54
2023/03/17 08:21:19;;;;;;;14.88;7.43;;;10.90;99.90;;;;;;5044797;28;20109;-45
2023/03/17 08:23:45;;;;;;;12.90;6.82;;;11.00;99.90;;;;;;5051471;28;20486;-48
2023/03/17 08:26:13;;;;;;;16.50;6.82;;;11.00;99.90;;;;;;5050048;28;20108;-47
2023/03/17 08:28:39;;;;;;;13.95;5.65;;;11.00;99.90;;;;;;5049783;28;20021;-46
2023/03/17 08:31:11;;;;;;;17.75;6.65;;;11.00;99.90;;;;;;5049920;28;20068;-55
2023/03/17 08:33:37;;;;;;;11.05;5.63;;;11.00;99.90;;;;;;5031905;28;20017;-48
2023/03/17 08:36:05;;;;;;;16.50;5.57;;;11.00;99.90;;;;;;5049744;28;20055;-51
2023/03/17 08:38:31;;;;;;;13.82;5.45;;;11.00;99.90;;;;;;5049673;28;20067;-54
2023/03/17 08:41:00;;;;;;;12.60;4.93;;;11.10;99.90;;;;;;5049872;28;20017;-46
2023/03/17 08:43:26;;;;;;;12.00;4.50;;;11.10;99.90;;;;;;5052716;28;20021;-49
2023/03/17 08:45:59;;;;;;;11.00;4.30;;;11.00;99.90;;;;;;5035863;28;20052;-50
2023/03/17 08:48:25;;;;;;;11.68;4.63;;;11.10;99.90;;;;;;5053548;28;20063;-49
2023/03/17 08:50:50;;;;;;;10.70;4.13;;;11.10;99.90;;;;;;5052973;28;20032;-45
2023/03/17 08:53:16;;;;;;;9.35;4.32;;;11.10;99.90;;;;;;5042266;28;20029;-46
2023/03/17 08:55:42;;;;;;;7.32;3.80;;;11.10;99.90;;;;;;5053145;28;20044;-48
2023/03/17 08:58:08;;;;;;;9.68;3.97;;;11.10;99.90;;;;;;5035582;28;20104;-48
2023/03/17 09:00:34;;;;;;;10.07;4.45;;;11.10;99.90;;;;;;5053075;28;20025;-46
2023/03/17 09:03:00;;;;;;;9.57;4.22;;;11.20;99.90;;;;;;5050142;28;20390;-45
2023/03/17 09:05:26;;;;;;;8.73;4.18;;;11.20;99.90;;;;;;5052587;28;20509;-46
2023/03/17 09:07:52;;;;;;;8.13;4.10;;;11.20;99.90;;;;;;5053021;28;20486;-46
2023/03/17 09:10:21;;;;;;;12.07;4.70;;;11.30;99.90;;;;;;5053066;28;20056;-46
2023/03/17 09:12:48;;;;;;;9.02;4.30;;;11.30;99.90;;;;;;5035610;28;20036;-50
2023/03/17 09:15:13;;;;;;;11.20;4.25;;;11.30;99.90;;;;;;5053505;28;20110;-48
2023/03/17 09:17:40;;;;;;;11.52;4.78;;;11.30;99.90;;;;;;5053210;28;20497;-50
2023/03/17 09:20:06;;;;;;;16.52;4.60;;;11.20;99.90;;;;;;5035258;28;20021;-50
2023/03/17 09:22:32;;;;;;;13.18;5.28;;;11.20;99.90;;;;;;5050346;28;20504;-46
2023/03/17 09:24:58;;;;;;;11.88;6.03;;;11.20;99.90;;;;;;5052735;28;20021;-50
2023/03/17 09:27:24;;;;;;;12.00;6.15;;;11.20;99.90;;;;;;5052646;28;20025;-46
2023/03/17 09:29:49;;;;;;;11.40;6.28;;;11.20;99.90;;;;;;5052345;28;20033;-50
2023/03/17 09:32:15;;;;;;;11.75;7.20;;;11.30;99.90;;;;;;5052570;28;20029;-52
2023/03/17 09:34:41;;;;;;;11.35;6.78;;;11.20;99.90;;;;;;5052830;28;20389;-50
2023/03/17 09:37:08;;;;;;;14.50;7.35;;;11.20;99.90;;;;;;5052392;28;20059;-49
2023/03/17 09:39:35;;;;;;;13.60;7.70;;;11.20;99.90;;;;;;5052479;28;20066;-50
2023/03/17 09:42:06;;;;;;;11.15;7.38;;;11.30;99.90;;;;;;5052533;28;20037;-51
2023/03/17 09:44:38;;;;;;;13.75;8.30;;;11.30;99.90;;;;;;5052346;28;20467;-48
2023/03/17 09:47:13;;;;;;;13.30;7.68;;;11.40;99.90;;;;;;5052611;28;20469;-48
2023/03/17 09:49:48;;;;;;;14.45;7.65;;;11.40;99.90;;;;;;5052390;28;20039;-47
2023/03/17 09:52:21;;;;;;;15.60;7.97;;;11.30;99.90;;;;;;5041364;28;20108;-51
2023/03/17 09:54:48;;;;;;;14.63;7.18;;;11.20;99.90;;;;;;5033106;28;20392;-48
2023/03/17 09:57:25;;;;;;;12.32;7.07;;;11.30;99.90;;;;;;5052417;28;20041;-47
2023/03/17 10:00:00;;;;;;;13.02;7.32;;;11.30;99.90;;;;;;5052237;28;20075;-46
2023/03/17 10:02:31;;;;;;;16.30;7.97;;;11.30;99.90;;;;;;5052144;28;20136;-49
2023/03/17 10:04:58;;;;;;;13.82;7.15;;;11.30;99.90;;;;;;5034440;28;20025;-44
2023/03/17 10:07:50;;;;;;;10.20;6.82;;;11.30;99.90;;;;;;5052310;28;20067;-52
2023/03/17 10:10:41;;;;;;;13.90;7.20;;;11.30;99.90;;;;;;5038769;28;20088;-45
2023/03/17 10:13:31;;;;;;;10.90;7.20;;;11.30;99.90;;;;;;5051899;28;20183;-47
2023/03/17 10:16:03;;;;;;;9.57;6.22;;;11.40;99.90;;;;;;5051702;28;20111;-49
2023/03/17 10:18:40;;;;;;;11.98;6.00;;;11.50;99.90;;;;;;5051748;28;20502;-50
2023/03/17 10:21:09;;;;;;;12.75;6.53;;;11.60;99.90;;;;;;5050089;28;20124;-51
2023/03/17 10:23:35;;;;;;;12.30;6.20;;;11.70;99.90;;;;;;5049863;28;20029;-47
2023/03/17 10:26:38;;;;;;;15.07;6.72;;;11.70;99.90;;;;;;5051694;28;20036;-48
2023/03/17 10:29:11;;;;;;;11.65;5.57;;;11.80;99.90;;;;;;5051709;28;20021;-45
2023/03/17 10:31:38;;;;;;;15.18;6.15;;;11.90;99.90;;;;;;5051720;28;20110;-45
2023/03/17 10:34:25;;;;;;;12.65;5.60;;;11.90;99.90;;;;;;5051603;28;20025;-45
2023/03/17 10:37:18;;;;;;;11.95;5.30;;;11.90;99.90;;;;;;5051285;28;20553;-45
2023/03/17 10:39:50;;;;;;;11.48;5.15;;;11.90;99.90;;;;;;5043017;28;20108;-45
2023/03/17 10:42:25;;;;;;;10.93;5.25;;;11.80;99.90;;;;;;5050395;28;20040;-44
2023/03/17 10:44:55;;;;;;;14.60;5.63;;;11.70;99.90;;;;;;5047611;28;20025;-47
2023/03/17 10:47:30;;;;;;;11.90;4.85;;;11.70;99.90;;;;;;5039497;28;20044;-45
2023/03/17 10:50:01;;;;;;;13.15;5.57;;;11.60;99.90;;;;;;5034584;28;20486;-47
2023/03/17 10:52:37;;;;;;;11.70;4.75;;;11.60;99.90;;;;;;5045223;28;20021;-52
2023/03/17 10:55:06;;;;;;;11.27;5.20;;;11.60;99.90;;;;;;5033399;28;20057;-49
2023/03/17 10:57:36;;;;;;;7.47;4.80;;;11.60;99.90;;;;;;5037483;28;20111;-55
2023/03/17 11:00:05;;;;;;;9.48;5.35;;;11.60;99.90;;;;;;5044621;28;20067;-57
2023/03/17 11:02:41;;;;;;;7.97;4.68;;;11.60;99.90;;;;;;5040689;28;20021;-56
2023/03/17 11:05:19;;;;;;;9.98;4.75;;;11.70;99.90;;;;;;5050517;28;20545;-54
2023/03/17 11:07:45;;;;;;;11.48;4.47;;;11.70;99.90;;;;;;5050820;28;20028;-56
2023/03/17 11:10:22;;;;;;;10.02;5.00;;;11.70;99.90;;;;;;5050967;28;20025;-58
2023/03/17 11:12:58;;;;;;;8.00;4.32;;;11.70;99.90;;;;;;5050867;28;20489;-55
2023/03/17 11:15:41;;;;;;;11.15;5.13;;;11.70;99.90;;;;;;5050666;28;20091;-53
2023/03/17 11:18:29;;;;;;;11.75;5.30;;;11.70;99.90;;;;;;5051076;28;20040;-54
2023/03/17 11:21:05;;;;;;;12.57;5.50;;;11.70;99.90;;;;;;5050618;28;20028;-52
2023/03/17 11:23:50;;;;;;;9.30;5.07;;;11.60;99.90;;;;;;5041904;28;20385;-56
2023/03/17 11:26:46;;;;;;;15.27;5.07;;;11.60;99.90;;;;;;5050541;28;20488;-54
2023/03/17 11:29:24;;;;;;;11.48;5.20;;;11.60;99.90;;;;;;5050522;28;20385;-52
2023/03/17 11:31:58;;;;;;;15.45;5.25;;;11.70;99.90;;;;;;5050716;28;20504;-51
2023/03/17 11:34:29;;;;;;;11.52;4.80;;;11.80;99.90;;;;;;5050928;28;20029;-52
2023/03/17 11:37:40;;;;;;;10.65;4.60;;;11.80;99.90;;;;;;5048758;28;20041;-47
2023/03/17 11:40:13;;;;;;;11.63;5.00;;;11.70;99.90;;;;;;4990992;28;20120;-45
2023/03/17 11:43:13;;;;;;;10.10;5.65;;;11.70;99.90;;;;;;5050366;28;20053;-47
2023/03/17 11:45:51;;;;;;;;;;;11.70;99.90;;;;;;5050765;28;20025;-49
2023/03/17 11:48:28;;;;;;;10.20;5.13;;;11.70;99.90;;;;;;5050264;28;19931;-44
2023/03/17 11:51:09;;;;;;;14.20;5.25;;;11.60;99.90;;;;;;5049760;28;20036;-52
2023/03/17 11:53:38;;;;;;;12.23;5.60;;;11.60;99.90;;;;;;5050425;28;20100;-47
2023/03/17 11:56:15;;;;;;;11.60;4.70;;;11.50;99.90;;;;;;5050238;28;20055;-46
2023/03/17 11:58:48;;;;;;;10.10;3.90;;;11.50;99.90;;;;;;5050395;28;20074;-53
2023/03/17 12:01:20;;;;;;;11.95;4.50;;;11.50;99.90;;;;;;5050316;28;20087;-54
2023/03/17 12:03:46;;;;;;;13.15;5.15;;;11.50;99.90;;;;;;5050129;28;20029;-50
2023/03/17 12:06:24;;;;;;;11.23;5.22;;;11.50;99.90;;;;;;5048135;28;20119;-57
2023/03/17 12:08:59;;;;;;;12.67;5.30;;;11.50;99.90;;;;;;5039562;28;20025;-52
2023/03/17 12:11:33;;;;;;;8.20;4.70;;;11.50;99.90;;;;;;5041177;28;20036;-57
2023/03/17 12:14:31;;;;;;;8.32;4.50;;;11.50;99.90;;;;;;5040227;28;20029;-49
2023/03/17 12:17:18;;;;;;;6.85;4.60;;;11.40;99.90;;;;;;4991461;28;20452;-54
2023/03/17 12:20:09;;;;;;;13.18;5.38;;;11.40;99.90;;;;;;5026189;28;20071;-51
2023/03/17 12:23:04;;;;;;;11.80;5.43;;;11.40;99.90;;;;;;5043264;28;20029;-52
2023/03/17 12:25:31;;;;;;;11.07;5.28;;;11.40;99.90;;;;;;5053760;28;20024;-56
2023/03/17 12:28:09;;;;;;;9.80;5.50;;;11.50;99.90;;;;;;5053953;28;20017;-52
2023/03/17 12:31:00;;;;;;;13.82;5.05;;;11.40;99.90;;;;;;5053606;28;20021;-53
2023/03/17 12:34:05;;;;;;;13.95;5.72;;;11.40;99.90;;;;;;5051618;28;20025;-53
2023/03/17 12:36:33;;;;;;;10.40;5.95;;;11.30;99.90;;;;;;5021753;28;20049;-52
2023/03/17 12:39:15;;;;;;;8.35;5.03;;;11.30;99.90;;;;;;5052046;28;20040;-47
2023/03/17 12:42:04;;;;;;;12.25;5.38;;;11.30;99.90;;;;;;5053028;28;20021;-49
2023/03/17 12:44:50;;;;;;;13.48;5.05;;;11.30;99.90;;;;;;5053608;28;20023;-50
2023/03/17 12:47:44;;;;;;;13.85;6.10;;;11.30;99.90;;;;;;5053671;28;20108;-51